Airfield :
LOGIN :

Register | Disclaimer

   EN    FR    IT 

 










Legend :    VFR   Marginal VFR   IFR   Intensive IFR   Very Intensive IFR
Visi :
Ceiling :
>= 8 km
>= 3000ft
5 to 8 km
1000 to 3000 ft
1500m to 5 km
500 to 1000 ft
800 to 1500m
200 to 500 ft
< 800m
< 200 ft
Symbols :   Thunderstorms  Fog  Heavy snow  Heavy precipitations  Wind > 20 kt
SIGMETs :     Misc.  Thunderstorms  Icing  Turbulence  Mountain Waves  Volcanic Ashes







- Airport Elevation : 499 ft
- IATA code : TLS
- Download approach charts


LFBO - Toulouse / Blagnac

CURRENT METAR :
  • 222000Z AUTO 24004KT 180V270 9999 -RADZ FEW019/// SCT028/// BKN037/// ///CB 17/14 Q1018 TEMPO 4000 SHRA BECMG NSC

EXPIRED METARs :
  • 221930Z AUTO 20005KT 9999 FEW007/// BKN058/// OVC096/// ///CB 17/14 Q1017 BECMG NSC
  • 221900Z AUTO 22006KT 9999 FEW008 SCT036 OVC098 17/14 Q1017 NOSIG
  • 221830Z AUTO 19007KT 9999 FEW023 BKN047 OVC098 17/15 Q1016 NOSIG
  • 221800Z AUTO 22004KT 9999 SCT047 BKN058 OVC094 18/14 Q1016 NOSIG
  • 221730Z AUTO 22005KT 9999 FEW016/// BKN021/// BKN029/// ///TCU 18/14 Q1016 BECMG NSC

TAF AMD TAF LFBO
Valid from the 22 at 19:00 until the 24 at 00:00 UTC


221938Z 2219/2324 26006KT CAVOK
TEMPO 2219/2221 4000 SHRA SCT007 BKN040 FEW050CB
PROB40
TEMPO 2303/2308 3000 BR
ATIS : +33 5 62 74 66 36
No reported NOTAMs for that airfield.



MET'MAP, your aeronautical weather chart ! - Copyright ORBIFLY December 2007 - Disclaimer

ORBIFLY MET'MAP TEAM :

Programming & Development : Alexandra Zaïnal
Concept & Development : Baudouin d'Aumeries
Co-Development & Prog : Marc-Olivier Méhu
Technical & hardware support : Manuel Goepfert

Contact : metmap@orbifly.com




SOURCES & CREDITS :

   NOAA